Time;durP1;ratioP1;P1;durP2;ratioP2;P2;SDS_P1;SDS_P2;PMS_P1;PMS_P2;Temp;Humidity;BMP_temperature;BMP_pressure;BME280_temperature;BME280_humidity;BME280_pressure;Samples;Min_cycle;Max_cycle;Signal;HPM_P1;HPM_P2
2021/12/25 00:00:24;;;;;;;29.58;27.17;;;;;;;-0.06;100.00;97724.16;2087172;28;20226;-76
2021/12/25 00:01:26;;;;;;;31.70;28.90;;;;;;;-0.08;100.00;97719.19;2087401;28;20326;-76
2021/12/25 00:02:27;;;;;;;32.20;29.67;;;;;;;-0.10;100.00;97721.25;2087050;28;20223;-76
2021/12/25 00:03:29;;;;;;;33.13;30.23;;;;;;;-0.12;100.00;97728.59;2079287;28;20303;-76
2021/12/25 00:04:30;;;;;;;33.63;30.65;;;;;;;-0.13;100.00;97723.63;2079261;28;20219;-76
2021/12/25 00:05:34;;;;;;;31.70;28.83;;;;;;;-0.17;100.00;97723.38;2087040;28;20228;-75
2021/12/25 00:06:36;;;;;;;30.63;27.95;;;;;;;-0.13;100.00;97728.88;2079426;28;20251;-76
2021/12/25 00:07:37;;;;;;;31.70;28.90;;;;;;;-0.12;100.00;97725.19;2087276;28;20229;-75
2021/12/25 00:08:39;;;;;;;31.98;29.08;;;;;;;-0.11;100.00;97730.19;2086656;28;21050;-76
2021/12/25 00:09:41;;;;;;;31.50;28.80;;;;;;;-0.15;100.00;97729.13;2079005;28;20253;-76
2021/12/25 00:10:42;;;;;;;32.58;29.58;;;;;;;-0.14;100.00;97727.31;2086961;28;20235;-76
2021/12/25 00:11:45;;;;;;;33.37;30.27;;;;;;;-0.16;100.00;97726.78;2087014;28;20301;-75
2021/12/25 00:12:48;;;;;;;32.42;29.30;;;;;;;-0.13;100.00;97728.88;2087784;28;20552;-76
2021/12/25 00:13:50;;;;;;;31.48;28.45;;;;;;;-0.18;100.00;97732.25;2087320;28;20276;-76
2021/12/25 00:14:51;;;;;;;30.10;27.30;;;;;;;-0.22;100.00;97725.97;2078889;28;20234;-75
2021/12/25 00:15:53;;;;;;;30.40;27.33;;;;;;;-0.25;100.00;97718.63;2086829;28;20246;-77
2021/12/25 00:16:54;;;;;;;31.20;28.20;;;;;;;-0.28;100.00;97732.22;2086995;28;20222;-76
2021/12/25 00:17:56;;;;;;;30.87;28.13;;;;;;;-0.28;100.00;97733.00;2086775;28;20231;-76
2021/12/25 00:18:57;;;;;;;29.95;27.13;;;;;;;-0.30;100.00;97734.34;2087872;28;20238;-76
2021/12/25 00:19:59;;;;;;;28.70;26.20;;;;;;;-0.32;100.00;97731.97;2086823;28;20730;-75
2021/12/25 00:21:00;;;;;;;29.60;26.90;;;;;;;-0.31;100.00;97738.00;2087064;28;20712;-75
2021/12/25 00:22:02;;;;;;;29.87;26.97;;;;;;;-0.29;100.00;97738.53;2078824;28;20677;-76
2021/12/25 00:23:05;;;;;;;29.95;26.77;;;;;;;-0.32;100.00;97737.22;2086995;28;20963;-75
2021/12/25 00:24:08;;;;;;;28.50;25.75;;;;;;;-0.32;100.00;97736.44;2087004;28;20590;-75
2021/12/25 00:25:09;;;;;;;28.50;25.75;;;;;;;-0.28;100.00;97742.72;2078473;28;20265;-76
2021/12/25 00:26:24;;;;;;;29.27;26.67;;;;;;;-0.30;100.00;97744.81;2078432;28;20641;-75
2021/12/25 00:27:41;;;;;;;29.15;26.65;;;;;;;-0.32;100.00;97754.78;2080337;28;20226;-76
2021/12/25 00:28:59;;;;;;;28.88;26.23;;;;;;;-0.31;100.00;97753.72;2080472;28;20613;-75
2021/12/25 00:30:13;;;;;;;28.67;26.08;;;;;;;-0.30;100.00;97755.28;2080691;28;20278;-76
2021/12/25 00:31:28;;;;;;;29.20;26.52;;;;;;;-0.31;100.00;97758.97;2088373;28;20224;-76
2021/12/25 00:32:47;;;;;;;29.63;27.13;;;;;;;-0.32;100.00;97762.63;2093091;28;20221;-75
2021/12/25 00:33:57;;;;;;;30.75;27.73;;;;;;;-0.30;100.00;97765.78;2086712;28;20324;-76
2021/12/25 00:34:58;;;;;;;30.40;27.70;;;;;;;-0.32;100.00;97762.63;2079655;28;20274;-76
2021/12/25 00:36:00;;;;;;;30.73;27.73;;;;;;;-0.30;100.00;97771.00;2086953;28;20309;-75
2021/12/25 00:37:03;;;;;;;30.58;27.73;;;;;;;-0.27;100.00;97760.00;2086954;28;20276;-76
2021/12/25 00:38:06;;;;;;;30.52;27.75;;;;;;;-0.28;100.00;97777.56;2087024;28;20218;-75
2021/12/25 00:39:08;;;;;;;30.33;27.63;;;;;;;-0.33;100.00;97782.03;2086685;28;20230;-76
2021/12/25 00:40:12;;;;;;;29.15;26.63;;;;;;;-0.34;100.00;97770.75;2086883;28;20219;-76
2021/12/25 00:41:16;;;;;;;29.85;27.15;;;;;;;-0.36;100.00;97770.19;2086948;28;20226;-75
2021/12/25 00:42:17;;;;;;;29.55;26.75;;;;;;;-0.34;100.00;97772.59;2087660;28;20297;-76
2021/12/25 00:43:18;;;;;;;30.33;27.35;;;;;;;-0.37;100.00;97786.19;2087591;28;20225;-76
2021/12/25 00:44:20;;;;;;;31.27;28.07;;;;;;;-0.36;100.00;97793.00;2086818;28;20774;-76
2021/12/25 00:45:20;;;;;;;31.52;28.33;;;;;;;-0.38;100.00;97793.25;2078801;28;20720;-76
2021/12/25 00:46:25;;;;;;;32.93;29.70;;;;;;;-0.38;100.00;97789.84;2086871;28;20656;-75
2021/12/25 00:47:27;;;;;;;31.02;28.23;;;;;;;-0.37;100.00;97802.69;2078728;28;20309;-76
2021/12/25 00:48:29;;;;;;;30.38;27.48;;;;;;;-0.35;100.00;97815.53;2086934;28;20772;-76
2021/12/25 00:49:30;;;;;;;30.83;27.63;;;;;;;-0.35;100.00;97805.06;2087582;28;20214;-76
2021/12/25 00:50:32;;;;;;;33.88;30.38;;;;;;;-0.36;100.00;97811.34;2086762;28;20226;-76
2021/12/25 00:51:32;;;;;;;33.58;30.38;;;;;;;-0.31;100.00;97811.38;2086791;28;20230;-76
2021/12/25 00:52:37;;;;;;;34.50;31.05;;;;;;;-0.33;100.00;97800.38;2078718;28;20250;-75
2021/12/25 00:53:39;;;;;;;33.40;30.27;;;;;;;-0.38;100.00;97803.75;2078264;28;20231;-76
2021/12/25 00:54:43;;;;;;;33.70;30.17;;;;;;;-0.35;100.00;97810.28;2079144;28;20227;-75
2021/12/25 00:55:45;;;;;;;34.80;31.33;;;;;;;-0.38;100.00;97805.56;2078632;28;20278;-76
2021/12/25 00:56:46;;;;;;;34.33;30.80;;;;;;;-0.36;100.00;97813.97;2086777;28;20222;-75
2021/12/25 00:57:47;;;;;;;33.90;30.50;;;;;;;-0.35;100.00;97821.59;2086859;28;20222;-76
2021/12/25 00:58:48;;;;;;;34.38;31.08;;;;;;;-0.33;100.00;97814.25;2087602;28;20226;-76
2021/12/25 00:59:52;;;;;;;34.60;31.00;;;;;;;-0.38;100.00;97813.44;2086679;28;20237;-75
2021/12/25 01:00:53;;;;;;;34.30;30.92;;;;;;;-0.34;100.00;97811.91;2078152;28;20227;-77
2021/12/25 01:01:58;;;;;;;35.85;32.25;;;;;;;-0.35;100.00;97807.66;2078565;28;20238;-76
2021/12/25 01:02:59;;;;;;;35.30;31.58;;;;;;;-0.37;100.00;97801.91;2078672;28;20231;-75
2021/12/25 01:04:01;;;;;;;36.10;32.47;;;;;;;-0.37;100.00;97805.31;2086909;28;20227;-75
2021/12/25 01:05:03;;;;;;;35.00;31.42;;;;;;;-0.32;100.00;97820.28;2078511;28;20227;-75
2021/12/25 01:06:04;;;;;;;35.20;31.60;;;;;;;-0.36;100.00;97813.97;2086520;28;20229;-75
2021/12/25 01:07:06;;;;;;;37.08;33.47;;;;;;;-0.36;100.00;97816.56;2086283;28;20237;-76
2021/12/25 01:08:10;;;;;;;35.45;32.15;;;;;;;-0.31;100.00;97816.63;2086207;28;20222;-76
2021/12/25 01:09:11;;;;;;;36.47;32.67;;;;;;;-0.35;100.00;97828.63;2078461;28;20732;-76
2021/12/25 01:10:18;;;;;;;35.88;32.17;;;;;;;-0.37;100.00;97820.25;2078394;28;20590;-75
2021/12/25 01:11:19;;;;;;;35.05;31.58;;;;;;;-0.36;100.00;97829.69;2079031;28;20708;-75
2021/12/25 01:12:21;;;;;;;33.67;30.27;;;;;;;-0.28;100.00;97842.28;2078303;28;20227;-75
2021/12/25 01:13:26;;;;;;;33.92;30.30;;;;;;;-0.31;100.00;97842.81;2078289;28;20228;-76
2021/12/25 01:14:35;;;;;;;34.65;31.50;;;;;;;-0.33;100.00;97844.91;2078822;28;20234;-75
2021/12/25 01:15:56;;;;;;;34.47;30.98;;;;;;;-0.35;100.00;97846.97;2080060;28;20222;-75
2021/12/25 01:20:15;;;;;;;35.08;31.15;;;;;;;-0.36;100.00;97840.16;2082764;28;20621;-75
2021/12/25 01:27:13;;;;;;;35.58;31.88;;;;;;;-0.34;100.00;97861.69;2061968;28;20237;-75
2021/12/25 01:29:07;;;;;;;34.88;31.42;;;;;;;-0.33;100.00;97887.63;2080181;28;20220;-75
2021/12/25 01:30:12;;;;;;;34.50;29.80;;;;;;;-0.38;100.00;97866.63;2084135;28;20218;-75
2021/12/25 01:31:30;;;;;;;33.42;29.80;;;;;;;-0.38;100.00;97863.22;2079776;28;20245;-76
2021/12/25 01:34:51;;;;;;;33.13;29.80;;;;;;;-0.34;100.00;97869.53;2077898;28;20672;-75
2021/12/25 01:36:34;;;;;;;32.63;29.10;;;;;;;-0.37;100.00;97859.56;2085907;28;20238;-76
2021/12/25 01:38:06;;;;;;;33.00;29.60;;;;;;;-0.36;100.00;97872.38;2086138;28;20226;-76
2021/12/25 01:39:56;;;;;;;33.22;29.73;;;;;;;-0.37;100.00;97865.56;2086660;28;20681;-75
2021/12/25 01:41:30;;;;;;;31.58;28.50;;;;;;;-0.31;100.00;97861.16;2086433;28;20665;-75
2021/12/25 01:48:00;;;;;;;33.75;30.10;;;;;;;-0.36;100.00;97871.59;2068766;28;20262;-75
2021/12/25 01:49:01;;;;;;;32.70;29.52;;;;;;;-0.34;100.00;97874.78;2069629;28;20579;-75
2021/12/25 01:50:05;;;;;;;33.53;30.03;;;;;;;-0.35;100.00;97878.41;2077832;28;20322;-75
2021/12/25 01:51:06;;;;;;;35.30;31.15;;;;;;;-0.33;100.00;97873.75;2077925;28;20713;-75
2021/12/25 01:52:09;;;;;;;33.83;30.35;;;;;;;-0.30;100.00;97883.69;2077437;28;20227;-76
2021/12/25 01:53:11;;;;;;;34.40;30.80;;;;;;;-0.34;100.00;97880.81;2078893;28;20685;-75
2021/12/25 01:54:13;;;;;;;33.13;29.67;;;;;;;-0.31;100.00;97879.50;2086340;28;20222;-75
2021/12/25 01:55:22;;;;;;;33.20;29.67;;;;;;;-0.30;100.00;97883.69;2078142;28;20747;-75
2021/12/25 01:56:25;;;;;;;34.42;31.00;;;;;;;-0.34;100.00;97883.44;2078798;28;20227;-76
2021/12/25 01:57:28;;;;;;;35.08;31.58;;;;;;;-0.35;100.00;97883.66;2078263;28;20231;-75
2021/12/25 01:58:29;;;;;;;33.83;30.48;;;;;;;-0.33;100.00;97887.63;2078270;28;20223;-75
2021/12/25 01:59:32;;;;;;;35.08;31.50;;;;;;;-0.30;100.00;97886.31;2078123;28;20666;-75
2021/12/25 02:00:36;;;;;;;35.88;32.08;;;;;;;-0.31;100.00;97888.16;2077877;28;20231;-75
2021/12/25 02:01:38;;;;;;;35.83;32.00;;;;;;;-0.30;100.00;97883.69;2078024;28;20250;-76
2021/12/25 02:02:40;;;;;;;34.30;30.85;;;;;;;-0.34;100.00;97886.06;2086275;28;20231;-76
2021/12/25 02:03:42;;;;;;;37.22;33.33;;;;;;;-0.31;100.00;97889.97;2078152;28;20234;-75
2021/12/25 02:04:44;;;;;;;35.08;31.65;;;;;;;-0.30;100.00;97886.31;2086161;28;20219;-75
2021/12/25 02:05:46;;;;;;;33.90;30.50;;;;;;;-0.31;100.00;97876.88;2077753;28;20273;-75
2021/12/25 02:06:47;;;;;;;35.30;31.45;;;;;;;-0.31;100.00;97869.03;2086166;28;20218;-75
2021/12/25 02:07:49;;;;;;;36.60;32.90;;;;;;;-0.32;100.00;97883.97;2078012;28;20216;-76
2021/12/25 02:08:50;;;;;;;34.85;31.33;;;;;;;-0.32;100.00;97883.16;2078029;28;20227;-75
2021/12/25 02:09:51;;;;;;;35.97;32.27;;;;;;;-0.32;100.00;97880.56;2078034;28;20230;-76
2021/12/25 02:10:55;;;;;;;36.53;32.58;;;;;;;-0.30;100.00;97883.69;2077545;28;20623;-76
2021/12/25 02:11:59;;;;;;;35.45;31.77;;;;;;;-0.30;100.00;97887.09;2078311;28;20219;-75
2021/12/25 02:13:02;;;;;;;35.75;31.95;;;;;;;-0.31;100.00;97884.75;2078041;28;20670;-75
2021/12/25 02:14:04;;;;;;;36.47;32.67;;;;;;;-0.24;100.00;97890.56;2078051;28;20219;-75
2021/12/25 02:15:12;;;;;;;36.20;32.30;;;;;;;-0.26;100.00;97903.13;2078186;28;20234;-75
2021/12/25 02:16:18;;;;;;;35.03;31.42;;;;;;;-0.29;100.00;97901.00;2078577;28;20254;-75
2021/12/25 02:17:26;;;;;;;36.85;32.90;;;;;;;-0.32;100.00;97909.38;2078928;28;20297;-75
2021/12/25 02:18:36;;;;;;;34.80;31.15;;;;;;;-0.31;100.00;97903.09;2078368;28;20231;-75
2021/12/25 02:20:12;;;;;;;33.92;30.42;;;;;;;-0.31;100.00;97910.94;2078548;28;20280;-76
2021/12/25 02:21:20;;;;;;;34.15;30.75;;;;;;;-0.31;100.00;97908.31;2085668;28;20716;-75
2021/12/25 02:22:24;;;;;;;33.47;30.08;;;;;;;-0.32;100.00;97914.63;2078643;28;20586;-75
2021/12/25 02:23:26;;;;;;;33.67;30.27;;;;;;;-0.31;100.00;97910.94;2077986;28;20554;-75
2021/12/25 02:24:27;;;;;;;34.88;31.40;;;;;;;-0.31;100.00;97908.31;2086152;28;20240;-76
2021/12/25 02:25:32;;;;;;;34.53;30.98;;;;;;;-0.35;100.00;97915.09;2078168;28;20273;-75
2021/12/25 02:26:33;;;;;;;33.85;30.35;;;;;;;-0.36;100.00;97898.59;2078361;28;20227;-75
2021/12/25 02:27:37;;;;;;;31.95;28.73;;;;;;;-0.36;100.00;97900.44;2078045;28;20626;-75
2021/12/25 02:28:37;;;;;;;33.03;29.70;;;;;;;-0.35;100.00;97918.53;2077809;28;20234;-76
2021/12/25 02:29:39;;;;;;;34.47;30.97;;;;;;;-0.37;100.00;97922.44;2077938;28;20233;-76
2021/12/25 02:30:42;;;;;;;32.80;29.40;;;;;;;-0.35;100.00;97925.59;2078297;28;20242;-75
2021/12/25 02:31:47;;;;;;;34.83;31.33;;;;;;;-0.38;100.00;97926.88;2086134;28;20231;-76
2021/12/25 02:32:49;;;;;;;33.67;30.27;;;;;;;-0.39;100.00;97916.66;2086194;28;20230;-75
2021/12/25 02:33:50;;;;;;;34.58;30.92;;;;;;;-0.39;100.00;97911.44;2078005;28;20231;-76
2021/12/25 02:34:51;;;;;;;32.95;29.38;;;;;;;-0.38;100.00;97926.88;2086142;28;20228;-75
2021/12/25 02:35:55;;;;;;;33.40;30.02;;;;;;;-0.39;100.00;97924.53;2077676;28;20292;-76
2021/12/25 02:36:57;;;;;;;32.95;29.63;;;;;;;-0.39;100.00;97924.53;2086180;28;20230;-75
2021/12/25 02:37:58;;;;;;;33.00;29.83;;;;;;;-0.39;100.00;97935.00;2078100;28;20230;-75
2021/12/25 02:39:02;;;;;;;34.63;30.98;;;;;;;-0.40;100.00;97943.91;2078004;28;20223;-76
2021/12/25 02:40:05;;;;;;;33.25;29.95;;;;;;;-0.36;100.00;97929.25;2087025;28;20708;-75
2021/12/25 02:41:07;;;;;;;32.90;29.58;;;;;;;-0.37;100.00;97932.91;2086141;28;20272;-75
2021/12/25 02:42:08;;;;;;;34.85;31.10;;;;;;;-0.34;100.00;97940.28;2085397;28;20226;-75
2021/12/25 02:43:12;;;;;;;33.92;30.73;;;;;;;-0.31;100.00;97942.41;2077944;28;20247;-75
2021/12/25 02:44:13;;;;;;;32.50;29.33;;;;;;;-0.28;100.00;97947.13;2078013;28;20697;-75
2021/12/25 02:45:25;;;;;;;32.90;29.38;;;;;;;-0.24;100.00;97948.22;2078720;28;20226;-75
2021/12/25 02:46:28;;;;;;;33.13;29.92;;;;;;;-0.17;100.00;97940.91;2078295;28;20232;-75
2021/12/25 02:47:30;;;;;;;31.83;28.55;;;;;;;-0.21;100.00;97931.19;2078110;28;20220;-75
2021/12/25 02:48:33;;;;;;;31.35;28.35;;;;;;;-0.20;100.00;97949.28;2086246;28;20336;-75
2021/12/25 02:49:37;;;;;;;29.90;27.20;;;;;;;-0.14;100.00;97958.75;2087626;28;20243;-75
2021/12/25 02:50:39;;;;;;;31.05;28.05;;;;;;;-0.19;100.00;97960.53;2087206;28;20226;-76
2021/12/25 02:51:45;;;;;;;27.42;24.90;;;;;;;-0.18;100.00;97962.91;2087811;28;20249;-75
2021/12/25 02:52:47;;;;;;;27.58;25.08;;;;;;;-0.26;100.00;97950.31;2087572;28;20663;-75
2021/12/25 02:53:49;;;;;;;27.17;24.42;;;;;;;-0.28;100.00;97960.22;2079521;28;20307;-75
2021/12/25 02:54:50;;;;;;;26.95;24.45;;;;;;;-0.34;100.00;97963.88;2079491;28;20697;-75
2021/12/25 02:55:52;;;;;;;27.80;25.30;;;;;;;-0.34;100.00;97964.66;2087636;28;20654;-75
2021/12/25 02:56:55;;;;;;;26.88;24.38;;;;;;;-0.24;100.00;97963.16;2079457;28;20231;-76
2021/12/25 02:57:57;;;;;;;27.53;24.70;;;;;;;-0.30;100.00;97957.84;2079320;28;20336;-75
2021/12/25 02:59:03;;;;;;;27.48;25.05;;;;;;;-0.25;100.00;97972.84;2080156;28;20295;-75
2021/12/25 03:00:08;;;;;;;26.90;24.50;;;;;;;-0.28;100.00;97968.88;2087684;28;20272;-75
2021/12/25 03:01:12;;;;;;;27.75;25.25;;;;;;;-0.33;100.00;97976.72;2095202;28;20300;-75
2021/12/25 03:02:16;;;;;;;29.20;26.30;;;;;;;-0.34;100.00;97985.63;2088422;28;20226;-75
2021/12/25 03:03:19;;;;;;;27.27;24.80;;;;;;;-0.32;100.00;97980.13;2087243;28;20248;-75
2021/12/25 03:04:21;;;;;;;28.40;25.88;;;;;;;-0.33;100.00;97979.34;2087569;28;20307;-75
2021/12/25 03:05:22;;;;;;;29.30;26.45;;;;;;;-0.34;100.00;97987.47;2087196;28;20744;-76
2021/12/25 03:06:25;;;;;;;28.40;25.90;;;;;;;-0.34;100.00;97979.59;2087507;28;20262;-75
2021/12/25 03:07:28;;;;;;;28.75;26.15;;;;;;;-0.34;100.00;97985.63;2079594;28;20234;-75
2021/12/25 03:08:31;;;;;;;28.45;26.05;;;;;;;-0.34;100.00;97974.34;2079636;28;20219;-75
2021/12/25 03:09:35;;;;;;;27.73;25.05;;;;;;;-0.32;100.00;97982.75;2087576;28;20229;-75
2021/12/25 03:10:38;;;;;;;27.52;25.20;;;;;;;-0.34;100.00;97982.22;2079384;28;20219;-75
2021/12/25 03:11:38;;;;;;;27.17;24.77;;;;;;;-0.38;100.00;97987.16;2079068;28;20640;-75
2021/12/25 03:12:50;;;;;;;28.40;25.90;;;;;;;-0.34;100.00;97992.69;2087468;28;20300;-76
2021/12/25 03:14:10;;;;;;;28.90;26.30;;;;;;;-0.38;100.00;97981.91;2087460;28;20249;-75
2021/12/25 03:15:15;;;;;;;28.50;25.90;;;;;;;-0.35;100.00;97986.66;2081164;28;20324;-75
2021/12/25 03:16:16;;;;;;;29.42;26.58;;;;;;;-0.34;100.00;97988.25;2079524;28;20674;-76
2021/12/25 03:17:17;;;;;;;27.58;25.13;;;;;;;-0.30;100.00;97991.13;2087230;28;20218;-76
2021/12/25 03:18:20;;;;;;;28.57;26.07;;;;;;;-0.31;100.00;97998.22;2087419;28;20249;-75
2021/12/25 03:19:29;;;;;;;27.92;25.45;;;;;;;-0.36;100.00;97992.13;2078972;28;20306;-76
2021/12/25 03:20:33;;;;;;;30.67;27.92;;;;;;;-0.34;100.00;97995.31;2080463;28;20269;-75
2021/12/25 03:21:35;;;;;;;29.42;26.80;;;;;;;-0.34;100.00;98001.34;2087496;28;20219;-75
2021/12/25 03:22:39;;;;;;;29.33;26.63;;;;;;;-0.41;100.00;97990.28;2079271;28;20223;-75
2021/12/25 03:23:41;;;;;;;29.02;26.52;;;;;;;-0.38;100.00;97987.16;2079127;28;20631;-75
2021/12/25 03:24:43;;;;;;;29.15;26.65;;;;;;;-0.36;100.00;97992.13;2079276;28;20231;-75
2021/12/25 03:25:44;;;;;;;28.00;25.48;;;;;;;-0.33;100.00;97986.41;2087422;28;20223;-75
2021/12/25 03:26:52;;;;;;;28.50;26.20;;;;;;;-0.37;100.00;97991.34;2087379;28;20235;-75
2021/12/25 03:27:56;;;;;;;27.58;25.17;;;;;;;-0.35;100.00;97986.66;2079606;28;20608;-76
2021/12/25 03:29:02;;;;;;;27.08;24.67;;;;;;;-0.31;100.00;97986.94;2079485;28;20253;-75
2021/12/25 03:30:05;;;;;;;27.50;24.67;;;;;;;-0.35;100.00;97994.53;2079929;28;20219;-75
2021/12/25 03:31:14;;;;;;;27.88;25.20;;;;;;;-0.38;100.00;97995.00;2079398;28;20227;-75
2021/12/25 03:32:15;;;;;;;27.63;25.17;;;;;;;-0.39;100.00;98003.13;2079866;28;20670;-75
2021/12/25 03:33:19;;;;;;;28.02;25.30;;;;;;;-0.38;100.00;98004.72;2087358;28;20229;-75
2021/12/25 03:34:20;;;;;;;28.45;25.55;;;;;;;-0.42;100.00;98003.66;2095394;28;20237;-75
2021/12/25 03:35:23;;;;;;;28.17;25.67;;;;;;;-0.39;100.00;98008.38;2088158;28;20298;-75
2021/12/25 03:36:23;;;;;;;28.98;26.48;;;;;;;-0.42;100.00;98008.88;2095204;28;20230;-76
2021/12/25 03:37:25;;;;;;;29.23;26.47;;;;;;;-0.43;100.00;98007.31;2095747;28;20226;-75
2021/12/25 03:38:28;;;;;;;28.60;26.00;;;;;;;-0.40;100.00;98012.03;2087365;28;20726;-75
2021/12/25 03:39:30;;;;;;;27.40;25.02;;;;;;;-0.42;100.00;98008.88;2087571;28;20241;-76
2021/12/25 03:40:31;;;;;;;29.23;26.45;;;;;;;-0.40;100.00;98018.06;2079145;28;20219;-76
2021/12/25 03:41:34;;;;;;;29.05;26.50;;;;;;;-0.42;100.00;98008.88;2079006;28;20556;-75
2021/12/25 03:42:35;;;;;;;29.30;26.65;;;;;;;-0.43;100.00;98012.53;2087442;28;20301;-75
2021/12/25 03:43:40;;;;;;;29.02;26.38;;;;;;;-0.44;100.00;98026.66;2087317;28;20655;-76
2021/12/25 03:44:41;;;;;;;29.10;26.33;;;;;;;-0.43;100.00;98025.66;2086869;28;20227;-76
2021/12/25 03:45:42;;;;;;;28.10;25.60;;;;;;;-0.38;100.00;98021.22;2079026;28;20285;-76
2021/12/25 03:46:44;;;;;;;29.52;26.70;;;;;;;-0.39;100.00;98019.63;2087305;28;20231;-76
2021/12/25 03:47:50;;;;;;;29.42;26.52;;;;;;;-0.41;100.00;98021.72;2087248;28;20219;-75
2021/12/25 03:49:04;;;;;;;29.85;27.17;;;;;;;-0.45;100.00;98031.09;2087140;28;20625;-75
2021/12/25 03:58:10;;;;;;;25.52;23.30;;;;;;;-0.45;100.00;98040.81;2087038;28;20238;-75
2021/12/25 03:59:13;;;;;;;25.88;23.52;;;;;;;-0.62;100.00;98051.41;2086977;28;20242;-75
2021/12/25 04:00:16;;;;;;;25.52;23.13;;;;;;;-0.71;100.00;98048.44;2086839;28;20665;-75
2021/12/25 04:01:29;;;;;;;25.58;23.38;;;;;;;-0.73;100.00;98055.75;2087163;28;20226;-74
2021/12/25 04:02:36;;;;;;;24.95;22.85;;;;;;;-0.80;100.00;98044.69;2086723;28;20306;-74
2021/12/25 04:03:45;;;;;;;24.55;22.55;;;;;;;-0.91;100.00;98053.47;2079312;28;20235;-74
2021/12/25 04:04:49;;;;;;;24.23;22.23;;;;;;;-0.90;100.00;98055.06;2080227;28;20226;-73
2021/12/25 04:05:50;;;;;;;22.77;21.02;;;;;;;-0.86;100.00;98061.41;2079109;28;20223;-73
2021/12/25 04:07:00;;;;;;;22.30;20.50;;;;;;;-0.92;100.00;98067.59;2078826;28;20234;-74
2021/12/25 04:08:04;;;;;;;22.77;20.73;;;;;;;-0.96;100.00;98059.44;2086836;28;20313;-73
2021/12/25 04:09:14;;;;;;;20.98;19.48;;;;;;;-1.02;100.00;98054.41;2079546;28;20231;-73
2021/12/25 04:10:15;;;;;;;21.25;19.85;;;;;;;-1.08;100.00;98066.66;2079599;28;20602;-73
2021/12/25 04:11:27;;;;;;;22.08;20.33;;;;;;;-1.15;100.00;98066.03;2087278;28;20276;-73
2021/12/25 04:12:28;;;;;;;21.73;19.88;;;;;;;-1.15;100.00;98066.03;2086543;28;20218;-74
2021/12/25 04:13:30;;;;;;;22.25;20.42;;;;;;;-1.17;100.00;98063.66;2078814;28;20227;-73
2021/12/25 04:14:31;;;;;;;21.35;19.75;;;;;;;-1.22;100.00;98054.97;2087189;28;20218;-74
2021/12/25 04:15:33;;;;;;;22.57;20.63;;;;;;;-1.20;100.00;98060.75;2079112;28;20675;-73
2021/12/25 04:16:35;;;;;;;21.13;19.33;;;;;;;-1.16;100.00;98067.88;2079051;28;20289;-73
2021/12/25 04:17:37;;;;;;;21.98;20.27;;;;;;;-1.21;100.00;98065.19;2087116;28;20218;-73
2021/12/25 04:18:37;;;;;;;22.05;20.25;;;;;;;-1.11;100.00;98085.47;2086741;28;20678;-74
2021/12/25 04:19:39;;;;;;;22.07;20.20;;;;;;;-1.13;100.00;98082.28;2079155;28;20345;-73
2021/12/25 04:20:42;;;;;;;21.33;19.55;;;;;;;-1.17;100.00;98081.97;2087055;28;20264;-73
2021/12/25 04:21:51;;;;;;;18.70;17.48;;;;;;;-1.20;100.00;98081.69;2087136;28;20249;-73
2021/12/25 04:22:58;;;;;;;19.88;18.38;;;;;;;-1.33;100.00;98089.88;2086708;28;20305;-74
2021/12/25 04:24:01;;;;;;;19.00;17.75;;;;;;;-1.51;100.00;98090.97;2087158;28;20223;-73
2021/12/25 04:25:04;;;;;;;18.88;17.67;;;;;;;-1.67;100.00;98099.63;2087095;28;20586;-73
2021/12/25 04:26:06;;;;;;;18.10;17.00;;;;;;;-1.65;100.00;98094.94;2087270;28;20305;-73
2021/12/25 04:27:11;;;;;;;18.50;17.25;;;;;;;-1.69;100.00;98099.09;2086692;28;20566;-74
2021/12/25 04:28:18;;;;;;;18.88;17.67;;;;;;;-1.76;100.00;98100.03;2087204;28;20731;-73
2021/12/25 04:29:36;;;;;;;18.42;17.27;;;;;;;-1.91;100.00;98096.41;2087035;28;20599;-73
2021/12/25 04:30:57;;;;;;;18.50;17.15;;;;;;;-1.96;100.00;98097.13;2086767;28;20230;-73
2021/12/25 04:32:16;;;;;;;18.90;17.50;;;;;;;-1.98;100.00;98101.81;2086238;28;20241;-73
2021/12/25 04:42:50;;;;;;;19.50;18.00;;;;;;;-2.12;100.00;98111.00;2079766;28;20658;-73
2021/12/25 04:48:29;;;;;;;18.15;16.95;;;;;;;-2.15;100.00;98135.00;2086516;28;20278;-73
2021/12/25 04:49:49;;;;;;;19.60;18.10;;;;;;;-2.14;100.00;98136.56;2085900;28;20226;-74
2021/12/25 05:02:13;;;;;;;19.58;18.17;;;;;;;-2.37;100.00;98172.22;2085937;28;20214;-73
2021/12/25 05:03:43;;;;;;;19.65;18.13;;;;;;;-2.08;100.00;98170.41;2087118;28;20297;-72
2021/12/25 05:05:02;;;;;;;19.83;18.33;;;;;;;-2.04;100.00;98166.28;2086129;28;20278;-72
2021/12/25 05:06:10;;;;;;;20.08;18.67;;;;;;;-2.14;100.00;98165.31;2087777;28;20227;-73
2021/12/25 05:07:15;;;;;;;19.83;18.33;;;;;;;-2.21;100.00;98170.69;2086769;28;20249;-73
2021/12/25 05:08:16;;;;;;;20.35;18.65;;;;;;;-2.16;100.00;98168.16;2078438;28;20255;-73
2021/12/25 05:09:18;;;;;;;20.60;19.10;;;;;;;-2.24;100.00;98168.53;2078414;28;20236;-73
2021/12/25 05:10:19;;;;;;;20.38;18.98;;;;;;;-2.22;100.00;98174.31;2086779;28;20247;-73
2021/12/25 05:11:22;;;;;;;20.80;19.30;;;;;;;-2.27;100.00;98175.00;2086255;28;20269;-73
2021/12/25 05:12:25;;;;;;;20.75;19.15;;;;;;;-2.28;100.00;98175.25;2078098;28;20234;-73
2021/12/25 05:13:27;;;;;;;20.27;18.92;;;;;;;-2.38;100.00;98181.09;2086479;28;20262;-73
2021/12/25 05:14:30;;;;;;;21.23;19.52;;;;;;;-2.38;100.00;98178.47;2078684;28;20272;-73
2021/12/25 05:15:32;;;;;;;21.30;19.50;;;;;;;-2.37;100.00;98169.63;2078583;28;20328;-73
2021/12/25 05:16:34;;;;;;;20.60;19.10;;;;;;;-2.35;100.00;98179.81;2078505;28;20223;-73
2021/12/25 05:17:34;;;;;;;20.73;19.13;;;;;;;-2.38;100.00;98186.31;2078569;28;20223;-73
2021/12/25 05:18:38;;;;;;;21.55;19.75;;;;;;;-2.40;100.00;98183.16;2086581;28;20219;-73
2021/12/25 05:19:41;;;;;;;21.60;20.00;;;;;;;-2.41;100.00;98186.78;2086246;28;20223;-73
2021/12/25 05:20:43;;;;;;;20.97;19.47;;;;;;;-2.40;100.00;98188.38;2086709;28;20285;-73
2021/12/25 05:21:45;;;;;;;20.35;18.92;;;;;;;-2.36;100.00;98181.66;2086296;28;20538;-73
2021/12/25 05:22:45;;;;;;;20.40;19.02;;;;;;;-2.38;100.00;98182.91;2086566;28;20219;-73
2021/12/25 05:23:48;;;;;;;20.47;19.10;;;;;;;-2.39;100.00;98183.94;2086738;28;20260;-73
2021/12/25 05:24:51;;;;;;;20.80;19.27;;;;;;;-2.36;100.00;98175.63;2086640;28;20241;-73
2021/12/25 05:25:53;;;;;;;20.75;19.13;;;;;;;-2.33;100.00;98183.81;2078111;28;20231;-74
2021/12/25 05:26:57;;;;;;;20.05;18.52;;;;;;;-2.41;100.00;98170.34;2086689;28;20239;-73
2021/12/25 05:28:01;;;;;;;20.10;18.50;;;;;;;-2.40;100.00;98175.31;2086483;28;20221;-73
2021/12/25 05:29:04;;;;;;;20.20;18.70;;;;;;;-2.44;100.00;98182.00;2086481;28;20223;-73
2021/12/25 05:30:08;;;;;;;22.08;20.38;;;;;;;-2.45;100.00;98175.22;2078521;28;20319;-74
2021/12/25 05:31:24;;;;;;;20.77;19.10;;;;;;;-2.35;100.00;98182.44;2080016;28;20795;-74
2021/12/25 05:32:44;;;;;;;19.60;18.20;;;;;;;-2.39;100.00;98189.97;2086336;28;20226;-73
2021/12/25 05:34:17;;;;;;;19.90;18.40;;;;;;;-2.37;100.00;98192.34;2086494;28;20739;-73
2021/12/25 05:35:21;;;;;;;19.25;17.95;;;;;;;-2.34;100.00;98197.91;2086666;28;20227;-72
2021/12/25 05:36:37;;;;;;;19.25;17.88;;;;;;;-2.23;100.00;98190.25;2086330;28;20230;-73
2021/12/25 05:37:59;;;;;;;19.50;18.08;;;;;;;-2.39;100.00;98205.63;2085861;28;20222;-73
2021/12/25 05:39:20;;;;;;;19.83;18.33;;;;;;;-2.45;100.00;98211.78;2080760;28;20229;-73
2021/12/25 05:40:22;;;;;;;19.60;18.20;;;;;;;-2.46;100.00;98196.34;2086584;28;20748;-73
2021/12/25 05:41:27;;;;;;;19.48;18.08;;;;;;;-2.46;100.00;98210.19;2086168;28;20305;-73
2021/12/25 05:42:29;;;;;;;20.73;19.02;;;;;;;-2.57;100.00;98204.00;2078459;28;20273;-72
2021/12/25 05:43:31;;;;;;;19.98;18.48;;;;;;;-2.62;100.00;98210.91;2078218;28;20215;-73
2021/12/25 05:44:32;;;;;;;19.35;17.90;;;;;;;-2.60;100.00;98208.91;2078573;28;20303;-73
2021/12/25 05:45:42;;;;;;;19.33;18.02;;;;;;;-2.56;100.00;98215.22;2085961;28;20401;-73
2021/12/25 05:46:46;;;;;;;20.20;18.58;;;;;;;-2.64;100.00;98208.53;2078620;28;20274;-73